Time;durP1;ratioP1;P1;durP2;ratioP2;P2;SDS_P1;SDS_P2;PMS_P1;PMS_P2;Temp;Humidity;BMP_temperature;BMP_pressure;BME280_temperature;BME280_humidity;BME280_pressure;Samples;Min_cycle;Max_cycle;Signal;HPM_P1;HPM_P2
2023/07/04 00:01:13;;;;;;;0.00;0.00;;;;;;;11.45;83.27;100021.28;5025517;28;20037;-73
2023/07/04 00:03:40;;;;;;;0.00;0.00;;;;;;;11.37;83.39;100014.44;5005281;28;20116;-73
2023/07/04 00:06:07;;;;;;;0.00;0.00;;;;;;;11.41;83.59;100017.47;5020809;28;20116;-72
2023/07/04 00:08:34;;;;;;;0.00;0.00;;;;;;;11.39;83.77;100016.91;5026358;28;20071;-73
2023/07/04 00:11:04;;;;;;;0.00;0.00;;;;;;;11.38;84.39;100023.50;5015144;28;20058;-74
2023/07/04 00:13:33;;;;;;;0.00;0.00;;;;;;;11.37;84.87;100022.66;5028265;28;20025;-73
2023/07/04 00:16:00;;;;;;;0.00;0.00;;;;;;;11.39;84.67;100025.13;5018716;28;20278;-73
2023/07/04 00:18:27;;;;;;;0.00;0.00;;;;;;;11.41;85.33;100033.88;4995400;28;20050;-73
2023/07/04 00:21:04;;;;;;;0.00;0.00;;;;;;;11.39;84.64;100022.38;5001593;28;20099;-74
2023/07/04 00:23:34;;;;;;;0.00;0.00;;;;;;;11.42;85.29;100032.75;5004049;28;20029;-74
2023/07/04 00:26:00;;;;;;;0.00;0.00;;;;;;;11.42;84.98;100030.03;5000635;28;20033;-73
2023/07/04 00:28:26;;;;;;;0.00;0.00;;;;;;;11.41;85.98;100028.41;5006532;28;20117;-75
2023/07/04 00:30:53;;;;;;;0.00;0.00;;;;;;;11.42;85.75;100022.66;5003522;28;20101;-74
2023/07/04 00:33:23;;;;;;;0.00;0.00;;;;;;;11.43;86.22;100016.06;4997706;28;20422;-75
2023/07/04 00:35:49;;;;;;;0.00;0.00;;;;;;;11.39;86.62;100011.44;4980619;28;20377;-76
2023/07/04 00:38:16;;;;;;;0.00;0.00;;;;;;;11.44;86.33;100022.38;4983997;28;20042;-75
2023/07/04 00:40:44;;;;;;;0.00;0.00;;;;;;;11.43;86.67;100028.94;4996472;28;20084;-74
2023/07/04 00:43:12;;;;;;;0.00;0.00;;;;;;;11.43;86.77;100026.19;4982717;28;20119;-75
2023/07/04 00:45:42;;;;;;;0.00;0.00;;;;;;;11.41;87.34;100023.75;4996949;28;20093;-75
2023/07/04 00:48:12;;;;;;;0.00;0.00;;;;;;;11.42;87.06;100030.03;5013656;28;20161;-74
2023/07/04 00:50:49;;;;;;;0.00;0.00;;;;;;;11.39;87.70;100019.63;5007132;28;20112;-74
2023/07/04 00:53:15;;;;;;;0.00;0.00;;;;;;;11.41;87.46;100022.94;5005066;28;20033;-75
2023/07/04 00:55:46;;;;;;;0.00;0.00;;;;;;;11.44;88.44;100022.38;4987856;28;20113;-73
2023/07/04 00:58:11;;;;;;;0.00;0.00;;;;;;;11.42;88.14;100019.06;5008046;28;20029;-74
2023/07/04 01:00:38;;;;;;;0.00;0.00;;;;;;;11.47;88.43;100017.13;4999855;28;20046;-73
2023/07/04 01:03:05;;;;;;;0.00;0.00;;;;;;;11.51;87.61;100014.66;5007784;28;20137;-74
2023/07/04 01:05:56;;;;;;;0.00;0.00;;;;;;;11.55;87.65;100018.47;4994954;28;20030;-73
2023/07/04 01:08:32;;;;;;;0.00;0.00;;;;;;;11.60;87.33;100021.19;4990816;28;20034;-73
2023/07/04 01:11:01;;;;;;;0.00;0.00;;;;;;;11.64;87.74;100011.31;4994094;28;20443;-73
2023/07/04 01:13:34;;;;;;;0.00;0.00;;;;;;;11.74;87.22;100021.38;5013570;28;20026;-73
2023/07/04 01:16:05;;;;;;;0.00;0.00;;;;;;;11.73;87.25;100014.25;4982453;28;20062;-74
2023/07/04 01:18:32;;;;;;;0.00;0.00;;;;;;;11.79;86.85;100031.47;5004494;28;20132;-74
2023/07/04 01:21:00;;;;;;;0.00;0.00;;;;;;;11.74;86.94;100026.03;5011791;28;20028;-74
2023/07/04 01:23:34;;;;;;;0.00;0.00;;;;;;;11.70;87.88;100028.53;5008450;28;20029;-74
2023/07/04 01:26:22;;;;;;;0.00;0.00;;;;;;;11.62;87.81;100024.47;5003339;28;20033;-74
2023/07/04 01:28:53;;;;;;;0.00;0.00;;;;;;;11.54;88.14;100022.31;5002848;28;20072;-75
2023/07/04 01:31:25;;;;;;;0.00;0.00;;;;;;;11.45;88.25;100019.34;5008544;28;20071;-73
2023/07/04 01:33:51;;;;;;;0.00;0.00;;;;;;;11.39;88.47;100019.63;5007991;28;20357;-74
2023/07/04 01:36:27;;;;;;;0.00;0.00;;;;;;;11.33;89.05;100025.16;4999964;28;20109;-72
2023/07/04 01:38:54;;;;;;;0.00;0.00;;;;;;;11.33;88.87;100019.69;5005642;28;20502;-74
2023/07/04 01:41:21;;;;;;;0.00;0.00;;;;;;;11.35;89.53;100017.47;4997299;28;20030;-74
2023/07/04 01:43:53;;;;;;;0.00;0.00;;;;;;;11.46;88.85;100006.47;5011509;28;20018;-74
2023/07/04 01:46:19;;;;;;;0.00;0.00;;;;;;;11.55;88.64;100004.78;4975162;28;20034;-74
2023/07/04 01:48:47;;;;;;;0.00;0.00;;;;;;;11.68;88.37;100000.56;4990390;28;20104;-74
2023/07/04 01:51:12;;;;;;;0.00;0.00;;;;;;;11.85;88.10;100011.16;5021174;28;20407;-74
2023/07/04 01:53:38;;;;;;;0.00;0.00;;;;;;;11.94;87.93;100005.94;4982121;28;20030;-74
2023/07/04 01:56:03;;;;;;;0.00;0.00;;;;;;;11.99;87.39;100008.66;5023408;28;20547;-74
2023/07/04 01:58:29;;;;;;;0.00;0.00;;;;;;;12.08;87.09;100008.84;4998416;28;20030;-73
2023/07/04 02:00:55;;;;;;;0.00;0.00;;;;;;;12.11;86.50;99992.63;5009721;28;20380;-73
2023/07/04 02:03:21;;;;;;;0.10;0.10;;;;;;;12.13;86.61;99984.13;4993743;28;20033;-74
2023/07/04 02:05:46;;;;;;;0.05;0.05;;;;;;;12.25;86.14;99991.97;4983708;28;20030;-75
2023/07/04 02:08:11;;;;;;;0.00;0.00;;;;;;;12.22;85.85;99971.44;5026875;28;20079;-74
2023/07/04 02:10:37;;;;;;;0.00;0.00;;;;;;;12.31;85.41;99985.31;5000276;28;20562;-74
2023/07/04 02:13:02;;;;;;;0.00;0.00;;;;;;;12.32;85.45;99976.81;4984171;28;20022;-75
2023/07/04 02:15:28;;;;;;;0.00;0.00;;;;;;;12.38;84.96;99994.88;4998415;28;20086;-74
2023/07/04 02:17:53;;;;;;;0.00;0.00;;;;;;;12.44;85.17;99989.31;4986637;28;20526;-75
2023/07/04 02:20:20;;;;;;;0.00;0.00;;;;;;;12.45;84.70;99990.97;5020387;28;20656;-74
2023/07/04 02:22:45;;;;;;;0.00;0.00;;;;;;;12.50;84.56;99993.66;4984255;28;20555;-74
2023/07/04 02:25:11;;;;;;;0.00;0.00;;;;;;;12.53;84.35;99993.09;5001374;28;20053;-74
2023/07/04 02:27:36;;;;;;;0.00;0.00;;;;;;;12.55;84.10;99985.38;4994028;28;20030;-74
2023/07/04 02:30:03;;;;;;;0.00;0.00;;;;;;;12.53;83.86;99985.69;5013794;28;20134;-73
2023/07/04 02:32:29;;;;;;;0.00;0.00;;;;;;;12.55;84.04;99993.63;5021750;28;20092;-75
2023/07/04 02:34:54;;;;;;;0.00;0.00;;;;;;;12.58;83.96;99990.28;4999725;28;20053;-75
2023/07/04 02:37:20;;;;;;;0.00;0.00;;;;;;;12.56;83.96;99987.03;5004770;28;20480;-75
2023/07/04 02:39:45;;;;;;;0.00;0.00;;;;;;;12.58;83.51;99990.28;5006400;28;20513;-75
2023/07/04 02:42:10;;;;;;;0.00;0.00;;;;;;;12.63;83.28;99992.16;4984930;28;20037;-75
2023/07/04 02:44:36;;;;;;;0.00;0.00;;;;;;;12.61;83.70;99989.69;5004653;28;20049;-73
2023/07/04 02:47:02;;;;;;;0.00;0.00;;;;;;;12.58;83.10;99982.06;5018620;28;20150;-74
2023/07/04 02:49:27;;;;;;;0.00;0.00;;;;;;;12.59;83.62;99986.44;5013569;28;20018;-73
2023/07/04 02:51:52;;;;;;;0.00;0.00;;;;;;;12.60;83.56;99988.09;4994330;28;20041;-74
2023/07/04 02:54:18;;;;;;;0.00;0.00;;;;;;;12.60;83.19;99981.75;5014256;28;20037;-74
2023/07/04 02:56:44;;;;;;;0.00;0.00;;;;;;;12.55;83.53;99986.19;4989760;28;20034;-73
2023/07/04 02:59:09;;;;;;;0.00;0.00;;;;;;;12.56;83.36;99992.50;4980958;28;20056;-74
2023/07/04 03:01:35;;;;;;;0.00;0.00;;;;;;;12.50;83.73;99982.69;5018771;28;20026;-74
2023/07/04 03:04:00;;;;;;;0.00;0.00;;;;;;;12.49;83.93;99975.59;4996354;28;20033;-74
2023/07/04 03:06:25;;;;;;;0.00;0.00;;;;;;;12.54;83.82;99983.75;4998019;28;20113;-74
2023/07/04 03:08:51;;;;;;;0.00;0.00;;;;;;;12.55;83.89;99979.91;4987301;28;20076;-75
2023/07/04 03:11:18;;;;;;;0.00;0.00;;;;;;;12.60;83.63;99971.63;4986552;28;20049;-73
2023/07/04 03:13:43;;;;;;;0.00;0.00;;;;;;;12.64;83.86;99967.19;4997048;28;20037;-73
2023/07/04 03:16:09;;;;;;;0.00;0.00;;;;;;;12.67;83.47;99977.56;4991588;28;20030;-73
2023/07/04 03:18:34;;;;;;;0.00;0.00;;;;;;;12.67;83.41;99972.06;5006370;28;20045;-73
2023/07/04 03:21:00;;;;;;;0.00;0.00;;;;;;;12.69;83.19;99974.56;5028133;28;20435;-74
2023/07/04 03:23:25;;;;;;;0.00;0.00;;;;;;;12.69;83.23;99975.38;5028054;28;20029;-73
2023/07/04 03:25:50;;;;;;;0.00;0.00;;;;;;;12.67;83.31;99976.75;5038512;28;20028;-74
2023/07/04 03:28:16;;;;;;;0.08;0.08;;;;;;;12.63;83.76;99971.03;5052962;28;20109;-73
2023/07/04 03:30:42;;;;;;;0.00;0.00;;;;;;;12.65;83.40;99973.50;5009754;28;20632;-74
2023/07/04 03:33:07;;;;;;;0.00;0.00;;;;;;;12.63;83.53;99976.53;5035486;28;20435;-74
2023/07/04 03:35:32;;;;;;;0.00;0.00;;;;;;;12.63;83.97;99971.03;5041959;28;20025;-72
2023/07/04 03:37:58;;;;;;;0.00;0.00;;;;;;;12.63;83.76;99976.53;4999411;28;20041;-74
2023/07/04 03:40:23;;;;;;;0.00;0.00;;;;;;;12.61;83.79;99967.75;5019933;28;20052;-72
2023/07/04 03:42:49;;;;;;;0.00;0.00;;;;;;;12.64;83.74;99972.66;5024140;28;20021;-73
2023/07/04 03:45:14;;;;;;;0.00;0.00;;;;;;;12.68;83.44;99970.97;5017478;28;20036;-73
2023/07/04 03:47:40;;;;;;;0.00;0.00;;;;;;;12.70;83.96;99982.50;5032948;28;20037;-74
2023/07/04 03:50:06;;;;;;;0.00;0.00;;;;;;;12.72;83.46;99972.03;5036843;28;20539;-74
2023/07/04 03:52:32;;;;;;;0.00;0.00;;;;;;;12.73;83.54;99972.84;5003918;28;20036;-74
2023/07/04 03:54:58;;;;;;;0.00;0.00;;;;;;;12.73;83.47;99970.09;5008777;28;20045;-73
2023/07/04 03:57:24;;;;;;;0.10;0.10;;;;;;;12.72;83.36;99969.28;5015959;28;20057;-73
2023/07/04 03:59:50;;;;;;;0.00;0.00;;;;;;;12.74;82.89;99972.53;4990138;28;20032;-74
2023/07/04 04:02:15;;;;;;;0.00;0.00;;;;;;;12.79;83.06;99965.38;5036308;28;20048;-74
2023/07/04 04:04:41;;;;;;;0.00;0.00;;;;;;;12.79;82.57;99960.72;5043450;28;20063;-75
2023/07/04 04:07:09;;;;;;;0.00;0.00;;;;;;;12.78;82.49;99966.50;5014290;28;20041;-75
2023/07/04 04:09:36;;;;;;;0.00;0.00;;;;;;;12.71;83.00;99967.66;5020407;28;21482;-73
2023/07/04 04:12:02;;;;;;;0.00;0.00;;;;;;;12.65;83.13;99968.81;5018070;28;20109;-74
2023/07/04 04:14:31;;;;;;;0.00;0.00;;;;;;;12.59;83.30;99970.00;5035446;28;20080;-74
2023/07/04 04:16:58;;;;;;;0.00;0.00;;;;;;;12.58;83.74;99968.34;5007403;28;20061;-75
2023/07/04 04:19:24;;;;;;;0.00;0.00;;;;;;;12.61;83.31;99962.28;5023603;28;20038;-74
2023/07/04 04:21:52;;;;;;;0.00;0.00;;;;;;;12.72;83.17;99969.28;5007556;28;20487;-74
2023/07/04 04:24:17;;;;;;;0.00;0.00;;;;;;;12.74;82.98;99967.06;5023566;28;20065;-74
2023/07/04 04:26:43;;;;;;;0.00;0.00;;;;;;;12.83;82.92;99972.72;5033867;28;20124;-73
2023/07/04 04:29:09;;;;;;;0.00;0.00;;;;;;;12.85;82.34;99975.16;5047115;28;20416;-74
2023/07/04 04:31:37;;;;;;;0.03;0.03;;;;;;;12.90;82.70;99980.63;5020182;28;20029;-75
2023/07/04 04:34:03;;;;;;;0.00;0.00;;;;;;;12.93;82.22;99974.53;5022600;28;20476;-75
2023/07/04 04:36:30;;;;;;;0.00;0.00;;;;;;;12.99;81.98;99973.34;5043283;28;20498;-75
2023/07/04 04:38:56;;;;;;;0.00;0.00;;;;;;;13.02;81.76;99983.75;5012392;28;20095;-75
2023/07/04 04:41:21;;;;;;;0.00;0.00;;;;;;;13.00;82.06;99972.25;5038661;28;20464;-73
2023/07/04 04:43:49;;;;;;;0.00;0.00;;;;;;;13.00;81.94;99953.03;5044306;28;20029;-73
2023/07/04 04:46:15;;;;;;;0.00;0.00;;;;;;;12.98;81.94;99943.47;5004386;28;20435;-75
2023/07/04 04:48:41;;;;;;;0.00;0.00;;;;;;;13.04;81.80;99965.06;5022463;28;20042;-73
2023/07/04 04:51:09;;;;;;;0.00;0.00;;;;;;;13.04;81.84;99967.81;5022401;28;20033;-74
2023/07/04 04:53:36;;;;;;;0.00;0.00;;;;;;;13.01;82.34;99968.41;5013718;28;20056;-74
2023/07/04 04:56:06;;;;;;;0.00;0.00;;;;;;;13.04;81.92;99973.31;5035699;28;20395;-73
2023/07/04 04:58:31;;;;;;;0.00;0.00;;;;;;;12.99;82.19;99956.91;5019243;28;20124;-73
2023/07/04 05:00:56;;;;;;;0.00;0.00;;;;;;;13.04;81.97;99964.25;5020863;28;20447;-73
2023/07/04 05:03:23;;;;;;;0.00;0.00;;;;;;;13.13;81.79;99967.16;5036180;28;20033;-72
2023/07/04 05:05:48;;;;;;;0.00;0.00;;;;;;;13.18;82.16;99962.41;5019188;28;20037;-73
2023/07/04 05:08:14;;;;;;;0.00;0.00;;;;;;;13.21;81.52;99944.53;5022663;28;20108;-73
2023/07/04 05:10:39;;;;;;;0.00;0.00;;;;;;;13.30;81.47;99945.50;4998263;28;20121;-73
2023/07/04 05:13:05;;;;;;;0.00;0.00;;;;;;;13.39;81.39;99949.28;5030725;28;20063;-73
2023/07/04 05:15:30;;;;;;;0.00;0.00;;;;;;;13.50;80.88;99960.91;5018304;28;20037;-72
2023/07/04 05:17:56;;;;;;;0.00;0.00;;;;;;;13.59;80.61;99958.31;5017418;28;20099;-73
2023/07/04 05:20:25;;;;;;;0.00;0.00;;;;;;;13.62;80.16;99952.22;5009601;28;20523;-73
2023/07/04 05:22:56;;;;;;;0.00;0.00;;;;;;;13.74;80.13;99954.50;4993990;28;20049;-72
2023/07/04 05:25:22;;;;;;;0.00;0.00;;;;;;;13.77;80.21;99941.00;5022336;28;20028;-72
2023/07/04 05:27:54;;;;;;;0.00;0.00;;;;;;;13.85;79.22;99955.19;5018796;28;20033;-73
2023/07/04 05:30:22;;;;;;;0.00;0.00;;;;;;;13.87;79.01;99953.78;4979468;28;20037;-73
2023/07/04 05:32:47;;;;;;;0.00;0.00;;;;;;;13.89;78.85;99956.22;5039281;28;20044;-72
2023/07/04 05:35:12;;;;;;;0.00;0.00;;;;;;;13.91;78.40;99953.97;5006286;28;20029;-72
2023/07/04 05:37:38;;;;;;;0.00;0.00;;;;;;;13.94;77.77;99954.22;5020758;28;20037;-73
2023/07/04 05:40:04;;;;;;;0.00;0.00;;;;;;;13.93;77.44;99948.97;4971464;28;20526;-73
2023/07/04 05:42:29;;;;;;;0.00;0.00;;;;;;;13.98;77.45;99959.91;5017537;28;20044;-73
2023/07/04 05:44:54;;;;;;;0.00;0.00;;;;;;;13.97;77.44;99955.53;5005529;28;20091;-74
2023/07/04 05:47:20;;;;;;;0.00;0.00;;;;;;;14.02;76.92;99960.94;5001705;28;20056;-73
2023/07/04 05:49:45;;;;;;;0.00;0.00;;;;;;;14.02;77.00;99955.44;5022011;28;20029;-74
2023/07/04 05:52:11;;;;;;;0.00;0.00;;;;;;;14.07;77.02;99952.59;5023970;28;20047;-73
2023/07/04 05:54:39;;;;;;;0.00;0.00;;;;;;;14.12;76.77;99955.28;5003201;28;20021;-74
2023/07/04 05:57:05;;;;;;;0.00;0.00;;;;;;;14.22;76.64;99961.72;4997261;28;20100;-72
2023/07/04 05:59:30;;;;;;;0.00;0.00;;;;;;;14.28;75.99;99949.50;5021875;28;20048;-73
2023/07/04 06:01:58;;;;;;;0.00;0.00;;;;;;;14.40;76.01;99944.34;4987769;28;20144;-73
2023/07/04 06:04:23;;;;;;;0.00;0.00;;;;;;;14.53;75.21;99952.91;5006109;28;20033;-73
2023/07/04 06:06:52;;;;;;;0.00;0.00;;;;;;;14.59;74.52;99951.69;5027998;28;20083;-71
2023/07/04 06:09:19;;;;;;;0.00;0.00;;;;;;;14.64;73.71;99948.88;5035817;28;20037;-72
2023/07/04 06:11:46;;;;;;;0.00;0.00;;;;;;;14.74;73.84;99945.09;5003016;28;20034;-73
2023/07/04 06:14:17;;;;;;;0.00;0.00;;;;;;;14.82;73.31;99947.97;5007671;28;20091;-73
2023/07/04 06:16:43;;;;;;;0.00;0.00;;;;;;;14.95;72.89;99951.00;5025355;28;20049;-73
2023/07/04 06:19:08;;;;;;;0.00;0.00;;;;;;;15.09;71.99;99956.50;5000396;28;20029;-73
2023/07/04 06:21:35;;;;;;;0.00;0.00;;;;;;;15.17;71.65;99950.25;4988271;28;20052;-73
2023/07/04 06:24:00;;;;;;;0.00;0.00;;;;;;;15.24;71.07;99952.59;4998312;28;20121;-72
2023/07/04 06:26:27;;;;;;;0.00;0.00;;;;;;;15.32;71.29;99940.88;5006019;28;20038;-74
2023/07/04 06:28:54;;;;;;;0.00;0.00;;;;;;;15.47;70.69;99954.28;5018755;28;20045;-72
2023/07/04 06:31:20;;;;;;;0.00;0.00;;;;;;;15.60;70.24;99951.81;4994133;28;20045;-73
2023/07/04 06:33:45;;;;;;;0.00;0.00;;;;;;;15.73;69.26;99950.94;5007333;28;20045;-71
2023/07/04 06:36:16;;;;;;;0.00;0.00;;;;;;;15.88;68.79;99958.84;5004129;28;20045;-77
2023/07/04 06:38:42;;;;;;;0.00;0.00;;;;;;;16.01;68.98;99961.88;5024275;28;20029;-76
2023/07/04 06:41:14;;;;;;;0.00;0.00;;;;;;;16.02;67.53;99964.31;5036248;28;20041;-76
2023/07/04 06:43:44;;;;;;;0.00;0.00;;;;;;;16.11;68.16;99958.88;5024916;28;20495;-80
2023/07/04 06:46:12;;;;;;;0.00;0.00;;;;;;;16.21;67.46;99955.84;5038401;28;20140;-75
2023/07/04 06:48:38;;;;;;;0.00;0.00;;;;;;;16.45;66.81;99964.91;5011270;28;20106;-76
2023/07/04 06:51:29;;;;;;;0.00;0.00;;;;;;;16.58;66.36;99964.00;5031718;28;20468;-81
2023/07/04 06:53:57;;;;;;;0.00;0.00;;;;;;;16.55;66.17;99935.06;5029758;28;20429;-78
2023/07/04 06:56:23;;;;;;;0.00;0.00;;;;;;;16.71;65.04;99948.47;5030809;28;20073;-79
2023/07/04 06:58:51;;;;;;;0.00;0.00;;;;;;;16.68;65.08;99936.09;5011742;28;20464;-79
2023/07/04 07:01:19;;;;;;;0.00;0.00;;;;;;;16.84;64.63;99952.25;5028069;28;20040;-78
2023/07/04 07:03:44;;;;;;;0.00;0.00;;;;;;;16.82;64.43;99946.22;5019495;28;20017;-78
2023/07/04 07:06:12;;;;;;;0.00;0.00;;;;;;;16.95;63.79;99942.56;5002568;28;20396;-77
2023/07/04 07:08:38;;;;;;;0.00;0.00;;;;;;;17.08;63.28;99949.09;5011390;28;20457;-77
2023/07/04 07:11:07;;;;;;;0.00;0.00;;;;;;;17.08;63.65;99949.09;5022885;28;20037;-77
2023/07/04 07:13:32;;;;;;;0.00;0.00;;;;;;;17.14;63.68;99956.06;5004501;28;20060;-77
2023/07/04 07:16:27;;;;;;;0.00;0.00;;;;;;;17.30;63.05;99955.63;4994584;28;20056;-78
2023/07/04 07:18:54;;;;;;;0.00;0.00;;;;;;;17.35;62.36;99947.22;4990629;28;20058;-80
2023/07/04 07:21:23;;;;;;;0.00;0.00;;;;;;;17.67;62.13;99950.63;5015998;28;20107;-77
2023/07/04 07:23:49;;;;;;;0.00;0.00;;;;;;;17.95;61.42;99942.84;5001291;28;20690;-75
2023/07/04 07:26:18;;;;;;;0.00;0.00;;;;;;;18.44;60.77;99954.44;5019544;28;20066;-76
2023/07/04 07:28:43;;;;;;;0.00;0.00;;;;;;;18.69;59.57;99949.16;5037661;28;20075;-77
2023/07/04 07:31:14;;;;;;;0.00;0.00;;;;;;;18.85;58.16;99960.44;5035953;28;20030;-77
2023/07/04 07:33:42;;;;;;;0.00;0.00;;;;;;;18.87;58.25;99955.44;5006010;28;20037;-76
2023/07/04 07:36:14;;;;;;;0.00;0.00;;;;;;;19.14;58.00;99947.78;5026531;28;20034;-77
2023/07/04 07:38:40;;;;;;;0.00;0.00;;;;;;;19.39;57.27;99947.97;5023610;28;20443;-76
2023/07/04 07:41:06;;;;;;;0.00;0.00;;;;;;;19.42;56.86;99947.28;5036673;28;20049;-76
2023/07/04 07:43:37;;;;;;;0.00;0.00;;;;;;;19.45;56.91;99941.06;5010844;28;20464;-77
2023/07/04 07:46:09;;;;;;;0.00;0.00;;;;;;;19.61;56.97;99938.47;5038666;28;20021;-75
2023/07/04 07:48:35;;;;;;;0.00;0.00;;;;;;;19.96;57.23;99944.59;5015792;28;20044;-76
2023/07/04 07:51:01;;;;;;;0.00;0.00;;;;;;;20.10;56.38;99951.78;5042653;28;20027;-76
2023/07/04 07:53:28;;;;;;;0.00;0.00;;;;;;;19.77;55.59;99947.84;5008855;28;20018;-76
2023/07/04 07:55:54;;;;;;;0.00;0.00;;;;;;;19.65;55.89;99934.69;5009086;28;20155;-76
2023/07/04 07:58:19;;;;;;;0.00;0.00;;;;;;;19.67;55.98;99932.41;5022700;28;20532;-77
2023/07/04 08:00:44;;;;;;;0.00;0.00;;;;;;;19.75;56.29;99943.75;5023107;28;20125;-76
2023/07/04 08:03:12;;;;;;;0.00;0.00;;;;;;;19.70;55.86;99942.81;5024997;28;20030;-77
2023/07/04 08:05:39;;;;;;;0.00;0.00;;;;;;;19.63;55.88;99942.56;5022145;28;20032;-77
2023/07/04 08:08:05;;;;;;;0.00;0.00;;;;;;;19.76;56.01;99939.84;5007024;28;20038;-76
2023/07/04 08:10:35;;;;;;;0.00;0.00;;;;;;;19.94;56.10;99934.97;5035611;28;20037;-78
2023/07/04 08:13:01;;;;;;;0.00;0.00;;;;;;;19.94;55.99;99930.22;5043406;28;20044;-76
2023/07/04 08:15:26;;;;;;;0.00;0.00;;;;;;;19.99;56.11;99935.56;5030827;28;20026;-76
2023/07/04 08:17:51;;;;;;;0.00;0.00;;;;;;;19.75;56.30;99932.66;5021348;28;20046;-76
2023/07/04 08:20:17;;;;;;;0.00;0.00;;;;;;;19.42;57.00;99936.19;5019023;28;20034;-77
2023/07/04 08:22:42;;;;;;;0.00;0.00;;;;;;;19.09;57.33;99939.69;4988617;28;20071;-76
2023/07/04 08:25:08;;;;;;;0.00;0.00;;;;;;;18.66;58.37;99928.47;4993670;28;20030;-76
2023/07/04 08:27:33;;;;;;;0.00;0.00;;;;;;;18.44;59.13;99931.47;5017404;28;20075;-76
2023/07/04 08:29:59;;;;;;;0.00;0.00;;;;;;;18.11;60.12;99934.84;4989684;28;20803;-76
2023/07/04 08:32:24;;;;;;;0.00;0.00;;;;;;;17.82;61.32;99946.56;4981250;28;20034;-76
2023/07/04 08:34:49;;;;;;;0.00;0.00;;;;;;;17.66;61.93;99935.19;5002111;28;20037;-77
2023/07/04 08:37:17;;;;;;;0.00;0.00;;;;;;;17.65;62.04;99928.03;4979485;28;20028;-77
2023/07/04 08:39:46;;;;;;;0.00;0.00;;;;;;;17.62;62.69;99929.47;5034659;28;20041;-77
2023/07/04 08:42:14;;;;;;;0.00;0.00;;;;;;;17.56;63.40;99937.13;5007374;28;20582;-77
2023/07/04 08:44:46;;;;;;;0.00;0.00;;;;;;;17.63;64.15;99942.97;5022127;28;20137;-76
2023/07/04 08:47:14;;;;;;;0.00;0.00;;;;;;;17.84;64.40;99933.22;5041463;28;20045;-76
2023/07/04 08:50:13;;;;;;;0.00;0.00;;;;;;;18.21;63.78;99934.50;5040726;28;20021;-76
2023/07/04 08:52:52;;;;;;;0.00;0.00;;;;;;;18.85;62.26;99924.44;4997816;28;20120;-77
2023/07/04 08:55:19;;;;;;;0.00;0.00;;;;;;;19.36;60.33;99932.81;5021594;28;20033;-78
2023/07/04 08:57:57;;;;;;;0.00;0.00;;;;;;;20.11;59.03;99928.44;5036099;28;20632;-76
2023/07/04 09:00:43;;;;;;;0.00;0.00;;;;;;;21.19;57.28;99932.03;5010952;28;20032;-77
2023/07/04 09:03:30;;;;;;;0.00;0.00;;;;;;;21.89;53.19;99930.88;5020439;28;20029;-77
2023/07/04 09:06:18;;;;;;;0.00;0.00;;;;;;;22.20;52.38;99926.59;5031303;28;20044;-78
2023/07/04 09:09:15;;;;;;;0.00;0.00;;;;;;;22.32;52.66;99920.97;5024474;28;20388;-77
2023/07/04 09:11:41;;;;;;;0.00;0.00;;;;;;;21.97;52.57;99921.59;5020000;28;20037;-77
2023/07/04 09:14:30;;;;;;;0.00;0.00;;;;;;;21.45;53.55;99912.16;5038895;28;20029;-77
2023/07/04 09:16:57;;;;;;;0.00;0.00;;;;;;;21.18;54.55;99919.28;5022882;28;20313;-77
2023/07/04 09:19:23;;;;;;;0.00;0.00;;;;;;;20.59;54.78;99913.03;5033393;28;20089;-76
2023/07/04 09:21:48;;;;;;;0.00;0.00;;;;;;;20.00;55.62;99909.44;5022297;28;20021;-76
2023/07/04 09:24:14;;;;;;;0.00;0.00;;;;;;;19.46;56.79;99903.88;5017183;28;20049;-76
2023/07/04 09:26:42;;;;;;;0.00;0.00;;;;;;;18.95;57.96;99912.22;5009605;28;20040;-77
2023/07/04 09:29:09;;;;;;;0.00;0.00;;;;;;;18.55;58.82;99921.66;5027299;28;20479;-77
2023/07/04 09:31:38;;;;;;;0.00;0.00;;;;;;;18.25;59.97;99918.03;4993438;28;20030;-77
2023/07/04 09:34:20;;;;;;;0.00;0.00;;;;;;;17.99;60.85;99915.31;5022751;28;20057;-77
2023/07/04 09:36:47;;;;;;;0.00;0.00;;;;;;;17.70;67.66;99925.91;5019040;28;20118;-77
2023/07/04 09:39:13;;;;;;;0.00;0.00;;;;;;;16.85;74.18;99910.50;5013884;28;20033;-77
2023/07/04 09:41:40;;;;;;;0.00;0.00;;;;;;;16.56;76.06;99911.88;4986891;28;20468;-76
2023/07/04 09:44:19;;;;;;;0.00;0.00;;;;;;;16.46;78.17;99912.16;5041491;28;20030;-76
2023/07/04 09:46:50;;;;;;;0.00;0.00;;;;;;;16.73;77.91;99904.78;5026136;28;20022;-75
2023/07/04 09:49:30;;;;;;;0.00;0.00;;;;;;;17.22;75.58;99911.09;5008074;28;20029;-76
2023/07/04 09:51:58;;;;;;;0.00;0.00;;;;;;;17.86;72.85;99912.38;5007453;28;20152;-76
2023/07/04 09:54:24;;;;;;;0.00;0.00;;;;;;;18.33;69.92;99902.56;5025533;28;20017;-76
2023/07/04 09:56:49;;;;;;;0.00;0.00;;;;;;;18.64;68.24;99894.75;5025177;28;20435;-76
2023/07/04 09:59:22;;;;;;;0.00;0.00;;;;;;;18.89;66.56;99896.94;4993654;28;20033;-76
2023/07/04 10:01:50;;;;;;;0.00;0.00;;;;;;;18.82;64.15;99898.25;5020903;28;20021;-78
2023/07/04 10:04:33;;;;;;;0.00;0.00;;;;;;;18.79;64.38;99895.31;4996970;28;20087;-77
2023/07/04 10:06:59;;;;;;;0.00;0.00;;;;;;;19.13;63.52;99891.56;5005081;28;20439;-77
2023/07/04 10:09:25;;;;;;;0.00;0.00;;;;;;;19.43;62.68;99888.72;5001414;28;20029;-77
2023/07/04 10:12:07;;;;;;;0.00;0.00;;;;;;;19.89;62.85;99894.38;5001580;28;20046;-77
2023/07/04 10:14:36;;;;;;;0.00;0.00;;;;;;;20.26;62.04;99891.69;5024295;28;20436;-76
2023/07/04 10:17:17;;;;;;;0.00;0.00;;;;;;;20.66;59.64;99877.19;5040207;28;20438;-76
2023/07/04 10:19:45;;;;;;;0.00;0.00;;;;;;;20.81;57.09;99877.63;5018133;28;20093;-77
2023/07/04 10:22:11;;;;;;;0.00;0.00;;;;;;;21.55;55.34;99878.31;5020010;28;20014;-76
2023/07/04 10:24:37;;;;;;;0.00;0.00;;;;;;;22.54;52.87;99877.72;5040307;28;20068;-78
2023/07/04 10:27:13;;;;;;;0.00;0.00;;;;;;;23.86;49.97;99884.66;5031011;28;20421;-77
2023/07/04 10:29:59;;;;;;;0.00;0.00;;;;;;;24.37;46.91;99880.78;5014391;28;20037;-77
2023/07/04 10:32:26;;;;;;;0.00;0.00;;;;;;;25.20;47.10;99882.06;5019230;28;20643;-76
2023/07/04 10:34:52;;;;;;;0.00;0.00;;;;;;;26.23;43.92;99878.09;5036686;28;20064;-76
2023/07/04 10:37:57;;;;;;;0.00;0.00;;;;;;;26.02;43.90;99880.69;5030234;28;20021;-76
2023/07/04 10:40:25;;;;;;;0.00;0.00;;;;;;;25.02;44.28;99864.22;5000438;28;20041;-77
2023/07/04 10:43:05;;;;;;;0.00;0.00;;;;;;;24.15;46.00;99860.06;5033301;28;20029;-76
2023/07/04 10:45:32;;;;;;;0.00;0.00;;;;;;;23.21;47.00;99867.75;5023350;28;20021;-77
2023/07/04 10:48:12;;;;;;;0.00;0.00;;;;;;;21.82;49.49;99866.72;5015193;28;20049;-76
2023/07/04 10:50:58;;;;;;;0.00;0.00;;;;;;;20.72;52.72;99852.72;5023660;28;20024;-76
2023/07/04 10:53:23;;;;;;;0.00;0.00;;;;;;;19.77;55.59;99864.63;5020009;28;20034;-77
2023/07/04 10:56:17;;;;;;;0.00;0.00;;;;;;;19.11;58.95;99868.09;5019333;28;20052;-78
2023/07/04 10:58:47;;;;;;;0.00;0.00;;;;;;;18.25;63.06;99871.81;5005053;28;20037;-76
2023/07/04 11:01:20;;;;;;;0.00;0.00;;;;;;;17.40;67.32;99866.88;5026892;28;20380;-78
2023/07/04 11:03:56;;;;;;;0.00;0.00;;;;;;;16.74;71.49;99857.53;5021138;28;20028;-77
2023/07/04 11:06:33;;;;;;;0.00;0.00;;;;;;;16.43;73.08;99848.50;5016946;28;20033;-78
2023/07/04 11:09:00;;;;;;;0.00;0.00;;;;;;;16.26;73.75;99854.78;5016772;28;20379;-79
2023/07/04 11:11:29;;;;;;;0.00;0.00;;;;;;;16.20;74.47;99849.38;5023762;28;20119;-76
2023/07/04 11:14:01;;;;;;;0.00;0.00;;;;;;;16.19;75.95;99857.97;5019774;28;20132;-76
2023/07/04 11:16:31;;;;;;;0.00;0.00;;;;;;;16.33;76.54;99864.22;5007811;28;20073;-76
2023/07/04 11:19:07;;;;;;;0.00;0.00;;;;;;;16.57;75.79;99852.78;5020137;28;20041;-76
2023/07/04 11:21:33;;;;;;;0.00;0.00;;;;;;;16.83;74.97;99843.72;5009427;28;20032;-77
2023/07/04 11:24:13;;;;;;;0.00;0.00;;;;;;;16.93;74.07;99835.16;5021528;28;20032;-76
2023/07/04 11:27:24;;;;;;;0.00;0.00;;;;;;;16.99;73.59;99835.81;5025024;28;20025;-77
2023/07/04 11:29:55;;;;;;;0.00;0.00;;;;;;;16.89;73.86;99831.44;5011050;28;20049;-76
2023/07/04 11:32:52;;;;;;;0.00;0.00;;;;;;;16.80;75.12;99838.84;5021555;28;21337;-76
2023/07/04 11:35:22;;;;;;;0.00;0.00;;;;;;;16.66;76.43;99843.69;5022397;28;20387;-76
2023/07/04 11:37:57;;;;;;;0.00;0.00;;;;;;;16.49;78.20;99839.75;5023784;28;20056;-77
2023/07/04 11:40:22;;;;;;;0.00;0.00;;;;;;;16.21;81.40;99845.50;5025361;28;20033;-76